sensor_id;sensor_type;location;lat;lon;timestamp;temperature;humidity
790;DHT22;378;48.844;9.156;2023-03-01T00:02:21;-1.80;99.90
790;DHT22;378;48.844;9.156;2023-03-01T00:04:49;-1.80;99.90
790;DHT22;378;48.844;9.156;2023-03-01T00:07:17;-1.70;99.90
790;DHT22;378;48.844;9.156;2023-03-01T00:09:44;-1.80;99.90
790;DHT22;378;48.844;9.156;2023-03-01T00:12:11;-1.80;99.90
790;DHT22;378;48.844;9.156;2023-03-01T00:14:38;-1.80;99.90
790;DHT22;378;48.844;9.156;2023-03-01T00:17:05;-1.80;99.90
790;DHT22;378;48.844;9.156;2023-03-01T00:19:32;-1.70;99.90
790;DHT22;378;48.844;9.156;2023-03-01T00:22:00;-1.60;99.90
790;DHT22;378;48.844;9.156;2023-03-01T00:24:27;-1.50;99.90
790;DHT22;378;48.844;9.156;2023-03-01T00:26:54;-1.40;99.90
790;DHT22;378;48.844;9.156;2023-03-01T00:29:22;-1.30;99.90
790;DHT22;378;48.844;9.156;2023-03-01T00:31:49;-1.20;99.90
790;DHT22;378;48.844;9.156;2023-03-01T00:34:16;-1.20;99.90
790;DHT22;378;48.844;9.156;2023-03-01T00:36:43;-1.10;99.90
790;DHT22;378;48.844;9.156;2023-03-01T00:39:13;-1.00;99.90
790;DHT22;378;48.844;9.156;2023-03-01T00:41:41;-1.00;99.90
790;DHT22;378;48.844;9.156;2023-03-01T00:44:08;-1.00;99.90
790;DHT22;378;48.844;9.156;2023-03-01T00:46:35;-1.00;99.90
790;DHT22;378;48.844;9.156;2023-03-01T00:49:03;-1.00;99.90
790;DHT22;378;48.844;9.156;2023-03-01T00:51:30;-1.00;99.90
790;DHT22;378;48.844;9.156;2023-03-01T00:53:59;-1.00;99.90
790;DHT22;378;48.844;9.156;2023-03-01T00:56:28;-1.20;99.90
790;DHT22;378;48.844;9.156;2023-03-01T00:58:55;-1.30;99.90
790;DHT22;378;48.844;9.156;2023-03-01T01:01:24;-1.40;99.90
790;DHT22;378;48.844;9.156;2023-03-01T01:03:54;-1.40;99.90
790;DHT22;378;48.844;9.156;2023-03-01T01:06:24;-1.50;99.90
790;DHT22;378;48.844;9.156;2023-03-01T01:08:52;-1.50;99.90
790;DHT22;378;48.844;9.156;2023-03-01T01:11:20;-1.60;99.90
790;DHT22;378;48.844;9.156;2023-03-01T01:13:49;-1.80;99.90
790;DHT22;378;48.844;9.156;2023-03-01T01:16:17;-1.90;99.90
790;DHT22;378;48.844;9.156;2023-03-01T01:18:45;-2.00;99.90
790;DHT22;378;48.844;9.156;2023-03-01T01:21:15;-2.00;99.90
790;DHT22;378;48.844;9.156;2023-03-01T01:23:43;-2.20;99.90
790;DHT22;378;48.844;9.156;2023-03-01T01:26:12;-2.20;99.90
790;DHT22;378;48.844;9.156;2023-03-01T01:28:40;-2.30;99.90
790;DHT22;378;48.844;9.156;2023-03-01T01:31:08;-2.30;99.90
790;DHT22;378;48.844;9.156;2023-03-01T01:33:36;-2.30;99.90
790;DHT22;378;48.844;9.156;2023-03-01T01:36:04;-2.40;99.90
790;DHT22;378;48.844;9.156;2023-03-01T01:38:31;-2.50;99.90
790;DHT22;378;48.844;9.156;2023-03-01T01:40:58;-2.50;99.90
790;DHT22;378;48.844;9.156;2023-03-01T01:43:27;-2.50;99.90
790;DHT22;378;48.844;9.156;2023-03-01T01:45:56;-2.50;99.90
790;DHT22;378;48.844;9.156;2023-03-01T01:48:29;-2.50;99.90
790;DHT22;378;48.844;9.156;2023-03-01T01:51:08;-2.50;99.90
790;DHT22;378;48.844;9.156;2023-03-01T01:53:37;-2.60;99.90
790;DHT22;378;48.844;9.156;2023-03-01T01:56:06;-2.60;99.90
790;DHT22;378;48.844;9.156;2023-03-01T01:58:34;-2.60;99.90
790;DHT22;378;48.844;9.156;2023-03-01T02:01:03;-2.70;99.90
790;DHT22;378;48.844;9.156;2023-03-01T02:03:33;-2.60;99.90
790;DHT22;378;48.844;9.156;2023-03-01T02:06:05;-2.60;99.90
790;DHT22;378;48.844;9.156;2023-03-01T02:08:36;-2.60;99.90
790;DHT22;378;48.844;9.156;2023-03-01T02:11:04;-2.50;99.90
790;DHT22;378;48.844;9.156;2023-03-01T02:13:32;-2.40;99.90
790;DHT22;378;48.844;9.156;2023-03-01T02:16:02;-2.40;99.90
790;DHT22;378;48.844;9.156;2023-03-01T02:18:30;-2.30;99.90
790;DHT22;378;48.844;9.156;2023-03-01T02:21:08;-2.20;99.90
790;DHT22;378;48.844;9.156;2023-03-01T02:23:36;-2.10;99.90
790;DHT22;378;48.844;9.156;2023-03-01T02:26:07;-2.00;99.90
790;DHT22;378;48.844;9.156;2023-03-01T02:28:40;-1.90;99.90
790;DHT22;378;48.844;9.156;2023-03-01T02:31:09;-1.70;99.90
790;DHT22;378;48.844;9.156;2023-03-01T02:33:55;-1.60;99.90
790;DHT22;378;48.844;9.156;2023-03-01T02:36:24;-1.50;99.90
790;DHT22;378;48.844;9.156;2023-03-01T02:38:55;-1.40;99.90
790;DHT22;378;48.844;9.156;2023-03-01T02:41:23;-1.40;99.90
790;DHT22;378;48.844;9.156;2023-03-01T02:43:52;-1.30;99.90
790;DHT22;378;48.844;9.156;2023-03-01T02:46:23;-1.30;99.90
790;DHT22;378;48.844;9.156;2023-03-01T02:48:52;-1.30;99.90
790;DHT22;378;48.844;9.156;2023-03-01T02:51:29;-1.30;99.90
790;DHT22;378;48.844;9.156;2023-03-01T02:54:11;-1.20;99.90
790;DHT22;378;48.844;9.156;2023-03-01T02:56:38;-1.20;99.90
790;DHT22;378;48.844;9.156;2023-03-01T02:59:07;-1.10;99.90
790;DHT22;378;48.844;9.156;2023-03-01T03:01:35;-1.10;99.90
790;DHT22;378;48.844;9.156;2023-03-01T03:04:04;-1.00;99.90
790;DHT22;378;48.844;9.156;2023-03-01T03:06:31;-1.00;99.90
790;DHT22;378;48.844;9.156;2023-03-01T03:08:58;-1.00;99.90
790;DHT22;378;48.844;9.156;2023-03-01T03:11:25;-0.90;99.90
790;DHT22;378;48.844;9.156;2023-03-01T03:13:52;-0.90;99.90
790;DHT22;378;48.844;9.156;2023-03-01T03:16:20;-0.90;99.90
790;DHT22;378;48.844;9.156;2023-03-01T03:18:48;-0.90;99.90
790;DHT22;378;48.844;9.156;2023-03-01T03:21:15;-0.90;99.90
790;DHT22;378;48.844;9.156;2023-03-01T03:23:42;-0.80;99.90
790;DHT22;378;48.844;9.156;2023-03-01T03:26:10;-0.80;99.90
790;DHT22;378;48.844;9.156;2023-03-01T03:28:39;-0.80;99.90
790;DHT22;378;48.844;9.156;2023-03-01T03:31:06;-0.80;99.90
790;DHT22;378;48.844;9.156;2023-03-01T03:33:35;-0.80;99.90
790;DHT22;378;48.844;9.156;2023-03-01T03:36:02;-0.70;99.90
790;DHT22;378;48.844;9.156;2023-03-01T03:38:29;-0.70;99.90
790;DHT22;378;48.844;9.156;2023-03-01T03:41:00;-0.70;99.90
790;DHT22;378;48.844;9.156;2023-03-01T03:43:29;-0.70;99.90
790;DHT22;378;48.844;9.156;2023-03-01T03:45:56;-0.70;99.90
790;DHT22;378;48.844;9.156;2023-03-01T03:48:24;-0.60;99.90
790;DHT22;378;48.844;9.156;2023-03-01T03:50:53;-0.60;99.90
790;DHT22;378;48.844;9.156;2023-03-01T03:53:21;-0.60;99.90
790;DHT22;378;48.844;9.156;2023-03-01T03:55:48;-0.50;99.90
790;DHT22;378;48.844;9.156;2023-03-01T03:58:18;-0.50;99.90
790;DHT22;378;48.844;9.156;2023-03-01T04:00:47;-0.60;99.90
790;DHT22;378;48.844;9.156;2023-03-01T04:03:16;-0.50;99.90
790;DHT22;378;48.844;9.156;2023-03-01T04:05:44;-0.50;99.90
790;DHT22;378;48.844;9.156;2023-03-01T04:08:13;-0.50;99.90
790;DHT22;378;48.844;9.156;2023-03-01T04:10:41;-0.50;99.90
790;DHT22;378;48.844;9.156;2023-03-01T04:13:11;-0.50;99.90
790;DHT22;378;48.844;9.156;2023-03-01T04:15:38;-0.50;99.90
790;DHT22;378;48.844;9.156;2023-03-01T04:18:06;-0.50;99.90
790;DHT22;378;48.844;9.156;2023-03-01T04:20:34;-0.50;99.90
790;DHT22;378;48.844;9.156;2023-03-01T04:23:04;-0.50;99.90
790;DHT22;378;48.844;9.156;2023-03-01T04:25:38;-0.50;99.90
790;DHT22;378;48.844;9.156;2023-03-01T04:28:05;-0.50;99.90
790;DHT22;378;48.844;9.156;2023-03-01T04:30:32;-0.40;99.90
790;DHT22;378;48.844;9.156;2023-03-01T04:33:02;-0.40;99.90
790;DHT22;378;48.844;9.156;2023-03-01T04:35:30;-0.40;99.90
790;DHT22;378;48.844;9.156;2023-03-01T04:37:57;-0.40;99.90
790;DHT22;378;48.844;9.156;2023-03-01T04:40:23;-0.40;99.90
790;DHT22;378;48.844;9.156;2023-03-01T04:42:52;-0.40;99.90
790;DHT22;378;48.844;9.156;2023-03-01T04:45:18;-0.40;99.90
790;DHT22;378;48.844;9.156;2023-03-01T04:47:46;-0.40;99.90
790;DHT22;378;48.844;9.156;2023-03-01T04:50:15;-0.40;99.90
790;DHT22;378;48.844;9.156;2023-03-01T04:52:43;-0.40;99.90
790;DHT22;378;48.844;9.156;2023-03-01T04:55:10;-0.40;99.90
790;DHT22;378;48.844;9.156;2023-03-01T04:57:37;-0.40;99.90
790;DHT22;378;48.844;9.156;2023-03-01T05:00:08;-0.30;99.90
790;DHT22;378;48.844;9.156;2023-03-01T05:02:49;-0.40;99.90
790;DHT22;378;48.844;9.156;2023-03-01T05:05:19;-0.30;99.90
790;DHT22;378;48.844;9.156;2023-03-01T05:07:47;-0.30;99.90
790;DHT22;378;48.844;9.156;2023-03-01T05:10:14;-0.30;99.90
790;DHT22;378;48.844;9.156;2023-03-01T05:12:41;-0.30;99.90
790;DHT22;378;48.844;9.156;2023-03-01T05:15:10;-0.30;99.90
790;DHT22;378;48.844;9.156;2023-03-01T05:17:37;-0.40;99.90
790;DHT22;378;48.844;9.156;2023-03-01T05:20:04;-0.40;99.90
790;DHT22;378;48.844;9.156;2023-03-01T05:22:34;-0.30;99.90
790;DHT22;378;48.844;9.156;2023-03-01T05:25:01;-0.30;99.90
790;DHT22;378;48.844;9.156;2023-03-01T05:27:28;-0.30;99.90
790;DHT22;378;48.844;9.156;2023-03-01T05:29:55;-0.30;99.90
790;DHT22;378;48.844;9.156;2023-03-01T05:32:23;-0.30;99.90
790;DHT22;378;48.844;9.156;2023-03-01T05:34:50;-0.30;99.90
790;DHT22;378;48.844;9.156;2023-03-01T05:37:17;-0.30;99.90
790;DHT22;378;48.844;9.156;2023-03-01T05:39:45;-0.30;99.90
790;DHT22;378;48.844;9.156;2023-03-01T05:42:12;-0.30;99.90
790;DHT22;378;48.844;9.156;2023-03-01T05:44:38;-0.30;99.90
790;DHT22;378;48.844;9.156;2023-03-01T05:47:05;-0.30;99.90
790;DHT22;378;48.844;9.156;2023-03-01T05:49:34;-0.30;99.90
790;DHT22;378;48.844;9.156;2023-03-01T05:52:00;-0.30;99.90
790;DHT22;378;48.844;9.156;2023-03-01T05:54:27;-0.30;99.90
790;DHT22;378;48.844;9.156;2023-03-01T05:56:54;-0.30;99.90
790;DHT22;378;48.844;9.156;2023-03-01T05:59:21;-0.30;99.90
790;DHT22;378;48.844;9.156;2023-03-01T06:01:48;-0.30;99.90
790;DHT22;378;48.844;9.156;2023-03-01T06:04:15;-0.30;99.90
790;DHT22;378;48.844;9.156;2023-03-01T06:06:43;-0.30;99.90
790;DHT22;378;48.844;9.156;2023-03-01T06:09:10;-0.30;99.90
790;DHT22;378;48.844;9.156;2023-03-01T06:11:37;-0.20;99.90
790;DHT22;378;48.844;9.156;2023-03-01T06:14:05;-0.30;99.90
790;DHT22;378;48.844;9.156;2023-03-01T06:16:33;-0.30;99.90
790;DHT22;378;48.844;9.156;2023-03-01T06:19:00;-0.20;99.90
790;DHT22;378;48.844;9.156;2023-03-01T06:21:26;-0.20;99.90
790;DHT22;378;48.844;9.156;2023-03-01T06:23:55;-0.20;99.90
790;DHT22;378;48.844;9.156;2023-03-01T06:26:21;-0.20;99.90
790;DHT22;378;48.844;9.156;2023-03-01T06:28:48;-0.20;99.90
790;DHT22;378;48.844;9.156;2023-03-01T06:31:15;-0.20;99.90
790;DHT22;378;48.844;9.156;2023-03-01T06:33:43;-0.30;99.90
790;DHT22;378;48.844;9.156;2023-03-01T06:36:10;-0.30;99.90
790;DHT22;378;48.844;9.156;2023-03-01T06:38:37;-0.30;99.90
790;DHT22;378;48.844;9.156;2023-03-01T06:41:07;-0.40;99.90
790;DHT22;378;48.844;9.156;2023-03-01T06:43:34;-0.40;99.90
790;DHT22;378;48.844;9.156;2023-03-01T06:46:03;-0.50;99.90
790;DHT22;378;48.844;9.156;2023-03-01T06:48:30;-0.50;99.90
790;DHT22;378;48.844;9.156;2023-03-01T06:50:58;-0.60;99.90
790;DHT22;378;48.844;9.156;2023-03-01T06:53:26;-0.50;99.90
790;DHT22;378;48.844;9.156;2023-03-01T06:55:54;-0.50;99.90
790;DHT22;378;48.844;9.156;2023-03-01T06:58:22;-0.40;99.90
790;DHT22;378;48.844;9.156;2023-03-01T07:00:49;-0.40;99.90
790;DHT22;378;48.844;9.156;2023-03-01T07:03:16;-0.40;99.90
790;DHT22;378;48.844;9.156;2023-03-01T07:05:43;-0.40;99.90
790;DHT22;378;48.844;9.156;2023-03-01T07:08:10;-0.30;99.90
790;DHT22;378;48.844;9.156;2023-03-01T07:10:37;-0.30;99.90
790;DHT22;378;48.844;9.156;2023-03-01T07:13:04;-0.30;99.90
790;DHT22;378;48.844;9.156;2023-03-01T07:15:33;-0.40;99.90
790;DHT22;378;48.844;9.156;2023-03-01T07:18:00;-0.40;99.90
790;DHT22;378;48.844;9.156;2023-03-01T07:20:27;-0.30;99.90
790;DHT22;378;48.844;9.156;2023-03-01T07:22:54;-0.30;99.90
790;DHT22;378;48.844;9.156;2023-03-01T07:25:21;-0.30;99.90
790;DHT22;378;48.844;9.156;2023-03-01T07:27:49;-0.30;99.90
790;DHT22;378;48.844;9.156;2023-03-01T07:30:17;-0.30;99.90
790;DHT22;378;48.844;9.156;2023-03-01T07:32:45;-0.30;99.90
790;DHT22;378;48.844;9.156;2023-03-01T07:35:12;-0.20;99.90
790;DHT22;378;48.844;9.156;2023-03-01T07:37:40;-0.20;99.90
790;DHT22;378;48.844;9.156;2023-03-01T07:40:08;-0.10;99.90
790;DHT22;378;48.844;9.156;2023-03-01T07:42:35;-0.10;99.90
790;DHT22;378;48.844;9.156;2023-03-01T07:45:02;0.00;99.90
790;DHT22;378;48.844;9.156;2023-03-01T07:47:29;0.00;99.90
790;DHT22;378;48.844;9.156;2023-03-01T07:49:57;0.00;99.90
790;DHT22;378;48.844;9.156;2023-03-01T07:52:24;0.00;99.90
790;DHT22;378;48.844;9.156;2023-03-01T07:54:51;0.00;99.90
790;DHT22;378;48.844;9.156;2023-03-01T07:57:18;0.10;99.90
790;DHT22;378;48.844;9.156;2023-03-01T07:59:44;0.20;99.90
790;DHT22;378;48.844;9.156;2023-03-01T08:02:11;0.40;99.90
790;DHT22;378;48.844;9.156;2023-03-01T08:04:38;0.40;99.90
790;DHT22;378;48.844;9.156;2023-03-01T08:07:06;0.50;99.90
790;DHT22;378;48.844;9.156;2023-03-01T08:09:34;0.80;99.90
790;DHT22;378;48.844;9.156;2023-03-01T08:12:02;0.90;99.90
790;DHT22;378;48.844;9.156;2023-03-01T08:14:30;1.20;99.90
790;DHT22;378;48.844;9.156;2023-03-01T08:16:57;1.60;99.90
790;DHT22;378;48.844;9.156;2023-03-01T08:19:24;2.10;99.90
790;DHT22;378;48.844;9.156;2023-03-01T08:21:50;2.70;99.90
790;DHT22;378;48.844;9.156;2023-03-01T08:24:19;3.20;99.90
790;DHT22;378;48.844;9.156;2023-03-01T08:26:45;3.30;99.90
790;DHT22;378;48.844;9.156;2023-03-01T08:29:12;3.50;99.90
790;DHT22;378;48.844;9.156;2023-03-01T08:31:40;4.00;99.90
790;DHT22;378;48.844;9.156;2023-03-01T08:34:09;4.90;99.90
790;DHT22;378;48.844;9.156;2023-03-01T08:36:38;5.60;99.90
790;DHT22;378;48.844;9.156;2023-03-01T08:39:06;5.70;99.90
790;DHT22;378;48.844;9.156;2023-03-01T08:41:34;5.60;99.90
790;DHT22;378;48.844;9.156;2023-03-01T08:44:02;5.40;99.90
790;DHT22;378;48.844;9.156;2023-03-01T08:46:30;5.50;99.90
790;DHT22;378;48.844;9.156;2023-03-01T08:48:58;5.50;99.90
790;DHT22;378;48.844;9.156;2023-03-01T08:51:25;5.90;99.90
790;DHT22;378;48.844;9.156;2023-03-01T08:53:52;6.70;99.90
790;DHT22;378;48.844;9.156;2023-03-01T08:56:19;7.70;99.90
790;DHT22;378;48.844;9.156;2023-03-01T08:58:48;7.90;99.90
790;DHT22;378;48.844;9.156;2023-03-01T09:01:17;7.60;99.90
790;DHT22;378;48.844;9.156;2023-03-01T09:03:44;7.40;99.90
790;DHT22;378;48.844;9.156;2023-03-01T09:06:11;7.80;99.90
790;DHT22;378;48.844;9.156;2023-03-01T09:08:40;8.10;99.90
790;DHT22;378;48.844;9.156;2023-03-01T09:11:10;8.10;99.90
790;DHT22;378;48.844;9.156;2023-03-01T09:13:37;8.50;99.90
790;DHT22;378;48.844;9.156;2023-03-01T09:16:08;8.60;99.90
790;DHT22;378;48.844;9.156;2023-03-01T09:18:35;8.40;99.90
790;DHT22;378;48.844;9.156;2023-03-01T09:21:03;8.10;99.90
790;DHT22;378;48.844;9.156;2023-03-01T09:23:33;7.30;99.90
790;DHT22;378;48.844;9.156;2023-03-01T09:26:02;7.20;99.90
790;DHT22;378;48.844;9.156;2023-03-01T09:28:29;7.90;99.90
790;DHT22;378;48.844;9.156;2023-03-01T09:30:57;8.70;99.90
790;DHT22;378;48.844;9.156;2023-03-01T09:33:26;9.00;99.90
790;DHT22;378;48.844;9.156;2023-03-01T09:35:56;9.50;99.90
790;DHT22;378;48.844;9.156;2023-03-01T09:38:23;8.90;99.90
790;DHT22;378;48.844;9.156;2023-03-01T09:40:50;8.70;99.90
790;DHT22;378;48.844;9.156;2023-03-01T09:43:21;8.40;99.90
790;DHT22;378;48.844;9.156;2023-03-01T09:45:52;8.50;99.90
790;DHT22;378;48.844;9.156;2023-03-01T09:48:22;8.80;99.90
790;DHT22;378;48.844;9.156;2023-03-01T09:50:51;8.90;99.90
790;DHT22;378;48.844;9.156;2023-03-01T09:53:20;8.60;99.90
790;DHT22;378;48.844;9.156;2023-03-01T09:55:51;9.50;99.90
790;DHT22;378;48.844;9.156;2023-03-01T09:58:38;9.10;99.90
790;DHT22;378;48.844;9.156;2023-03-01T10:01:23;8.90;99.90
790;DHT22;378;48.844;9.156;2023-03-01T10:04:05;8.30;99.90
790;DHT22;378;48.844;9.156;2023-03-01T10:06:38;8.40;99.90
790;DHT22;378;48.844;9.156;2023-03-01T10:09:10;8.70;99.90
790;DHT22;378;48.844;9.156;2023-03-01T10:11:41;8.60;99.90
790;DHT22;378;48.844;9.156;2023-03-01T10:14:20;8.50;99.90
790;DHT22;378;48.844;9.156;2023-03-01T10:16:54;8.90;99.90
790;DHT22;378;48.844;9.156;2023-03-01T10:19:27;9.20;99.90
790;DHT22;378;48.844;9.156;2023-03-01T10:22:03;9.30;99.90
790;DHT22;378;48.844;9.156;2023-03-01T10:24:33;8.90;99.90
790;DHT22;378;48.844;9.156;2023-03-01T10:27:05;8.30;99.90
790;DHT22;378;48.844;9.156;2023-03-01T10:29:37;8.10;99.90
790;DHT22;378;48.844;9.156;2023-03-01T10:32:06;8.50;99.90
790;DHT22;378;48.844;9.156;2023-03-01T10:34:34;8.80;99.90
790;DHT22;378;48.844;9.156;2023-03-01T10:37:10;8.90;99.90
790;DHT22;378;48.844;9.156;2023-03-01T10:39:37;8.60;99.90
790;DHT22;378;48.844;9.156;2023-03-01T10:42:25;7.60;99.90
790;DHT22;378;48.844;9.156;2023-03-01T10:44:52;7.10;99.90
790;DHT22;378;48.844;9.156;2023-03-01T10:47:22;6.90;99.90
790;DHT22;378;48.844;9.156;2023-03-01T10:50:00;6.50;99.90
790;DHT22;378;48.844;9.156;2023-03-01T10:52:32;6.60;99.90
790;DHT22;378;48.844;9.156;2023-03-01T10:55:02;6.70;99.90
790;DHT22;378;48.844;9.156;2023-03-01T10:57:35;6.80;99.90
790;DHT22;378;48.844;9.156;2023-03-01T11:00:21;6.90;99.90
790;DHT22;378;48.844;9.156;2023-03-01T11:02:50;7.20;99.90
790;DHT22;378;48.844;9.156;2023-03-01T11:05:21;7.00;99.90
790;DHT22;378;48.844;9.156;2023-03-01T11:07:53;6.90;99.90
790;DHT22;378;48.844;9.156;2023-03-01T11:10:23;7.20;99.90
790;DHT22;378;48.844;9.156;2023-03-01T11:12:51;7.30;99.90
790;DHT22;378;48.844;9.156;2023-03-01T11:15:26;7.10;99.90
790;DHT22;378;48.844;9.156;2023-03-01T11:17:54;7.00;99.90
790;DHT22;378;48.844;9.156;2023-03-01T11:20:29;6.80;99.90
790;DHT22;378;48.844;9.156;2023-03-01T11:23:01;6.90;99.90
790;DHT22;378;48.844;9.156;2023-03-01T11:25:31;7.00;99.90
790;DHT22;378;48.844;9.156;2023-03-01T11:28:02;7.10;99.90
790;DHT22;378;48.844;9.156;2023-03-01T11:30:34;6.90;99.90
790;DHT22;378;48.844;9.156;2023-03-01T11:33:17;6.90;99.90
790;DHT22;378;48.844;9.156;2023-03-01T11:35:49;7.30;99.90
790;DHT22;378;48.844;9.156;2023-03-01T11:38:24;7.50;99.90
790;DHT22;378;48.844;9.156;2023-03-01T11:40:54;7.30;99.90
790;DHT22;378;48.844;9.156;2023-03-01T11:43:31;7.30;99.90
790;DHT22;378;48.844;9.156;2023-03-01T11:46:28;7.40;99.90
790;DHT22;378;48.844;9.156;2023-03-01T11:49:07;7.60;99.90
790;DHT22;378;48.844;9.156;2023-03-01T11:51:45;7.70;99.90
790;DHT22;378;48.844;9.156;2023-03-01T11:54:29;7.60;99.90
790;DHT22;378;48.844;9.156;2023-03-01T11:57:04;7.70;99.90
790;DHT22;378;48.844;9.156;2023-03-01T12:00:06;7.90;99.90
790;DHT22;378;48.844;9.156;2023-03-01T12:03:05;8.10;99.90
790;DHT22;378;48.844;9.156;2023-03-01T12:05:54;8.20;99.90
790;DHT22;378;48.844;9.156;2023-03-01T12:08:33;8.30;99.90
790;DHT22;378;48.844;9.156;2023-03-01T12:11:16;8.50;99.90
790;DHT22;378;48.844;9.156;2023-03-01T12:14:03;8.60;99.90
790;DHT22;378;48.844;9.156;2023-03-01T12:16:51;8.60;99.90
790;DHT22;378;48.844;9.156;2023-03-01T12:19:45;8.50;99.90
790;DHT22;378;48.844;9.156;2023-03-01T12:22:27;8.60;99.90
790;DHT22;378;48.844;9.156;2023-03-01T12:25:14;8.60;99.90
790;DHT22;378;48.844;9.156;2023-03-01T12:30:42;8.50;99.90
790;DHT22;378;48.844;9.156;2023-03-01T12:33:19;8.50;99.90
790;DHT22;378;48.844;9.156;2023-03-01T12:36:09;8.30;99.90
790;DHT22;378;48.844;9.156;2023-03-01T12:38:42;8.50;99.90
790;DHT22;378;48.844;9.156;2023-03-01T12:44:08;8.80;99.90
790;DHT22;378;48.844;9.156;2023-03-01T12:46:46;8.90;99.90
790;DHT22;378;48.844;9.156;2023-03-01T12:49:20;8.90;99.90
790;DHT22;378;48.844;9.156;2023-03-01T12:51:54;8.90;99.90
790;DHT22;378;48.844;9.156;2023-03-01T12:54:27;9.00;99.90
790;DHT22;378;48.844;9.156;2023-03-01T12:56:55;9.40;99.90
790;DHT22;378;48.844;9.156;2023-03-01T12:59:29;9.50;99.90
790;DHT22;378;48.844;9.156;2023-03-01T13:02:10;9.50;99.90
790;DHT22;378;48.844;9.156;2023-03-01T13:04:50;9.70;99.90
790;DHT22;378;48.844;9.156;2023-03-01T13:07:25;9.70;99.90
790;DHT22;378;48.844;9.156;2023-03-01T13:10:02;9.70;99.90
790;DHT22;378;48.844;9.156;2023-03-01T13:12:51;9.60;99.90
790;DHT22;378;48.844;9.156;2023-03-01T13:15:35;9.80;99.90
790;DHT22;378;48.844;9.156;2023-03-01T13:18:07;10.10;99.90
790;DHT22;378;48.844;9.156;2023-03-01T13:20:53;10.40;99.90
790;DHT22;378;48.844;9.156;2023-03-01T13:23:30;10.80;99.90
790;DHT22;378;48.844;9.156;2023-03-01T13:26:15;11.00;99.90
790;DHT22;378;48.844;9.156;2023-03-01T13:28:50;11.30;99.90
790;DHT22;378;48.844;9.156;2023-03-01T13:34:51;11.60;99.90
790;DHT22;378;48.844;9.156;2023-03-01T13:37:29;11.60;99.90
790;DHT22;378;48.844;9.156;2023-03-01T13:40:03;11.80;99.90
790;DHT22;378;48.844;9.156;2023-03-01T13:42:40;11.80;99.90
790;DHT22;378;48.844;9.156;2023-03-01T13:45:32;11.90;99.90
790;DHT22;378;48.844;9.156;2023-03-01T13:48:04;11.80;99.90
790;DHT22;378;48.844;9.156;2023-03-01T13:50:45;11.80;99.90
790;DHT22;378;48.844;9.156;2023-03-01T13:53:17;11.00;99.90
790;DHT22;378;48.844;9.156;2023-03-01T13:55:46;10.80;99.90
790;DHT22;378;48.844;9.156;2023-03-01T13:58:22;10.90;99.90
790;DHT22;378;48.844;9.156;2023-03-01T14:00:57;10.60;99.90
790;DHT22;378;48.844;9.156;2023-03-01T14:03:24;10.20;99.90
790;DHT22;378;48.844;9.156;2023-03-01T14:06:01;9.80;99.90
790;DHT22;378;48.844;9.156;2023-03-01T14:08:29;9.60;99.90
790;DHT22;378;48.844;9.156;2023-03-01T14:14:19;9.60;99.90
790;DHT22;378;48.844;9.156;2023-03-01T14:16:55;9.20;99.90
790;DHT22;378;48.844;9.156;2023-03-01T14:19:27;8.90;99.90
790;DHT22;378;48.844;9.156;2023-03-01T14:22:10;8.70;99.90
790;DHT22;378;48.844;9.156;2023-03-01T14:24:46;8.50;99.90
790;DHT22;378;48.844;9.156;2023-03-01T14:27:15;8.30;99.90
790;DHT22;378;48.844;9.156;2023-03-01T14:29:42;8.00;99.90
790;DHT22;378;48.844;9.156;2023-03-01T14:32:12;7.80;99.90
790;DHT22;378;48.844;9.156;2023-03-01T14:34:43;7.70;99.90
790;DHT22;378;48.844;9.156;2023-03-01T14:37:19;7.80;99.90
790;DHT22;378;48.844;9.156;2023-03-01T14:39:46;7.90;99.90
790;DHT22;378;48.844;9.156;2023-03-01T14:42:13;8.00;99.90
790;DHT22;378;48.844;9.156;2023-03-01T14:44:42;8.10;99.90
790;DHT22;378;48.844;9.156;2023-03-01T14:47:12;8.00;99.90
790;DHT22;378;48.844;9.156;2023-03-01T14:49:41;7.90;99.90
790;DHT22;378;48.844;9.156;2023-03-01T14:52:20;8.00;99.90
790;DHT22;378;48.844;9.156;2023-03-01T14:54:49;8.00;99.90
790;DHT22;378;48.844;9.156;2023-03-01T14:57:19;7.90;99.90
790;DHT22;378;48.844;9.156;2023-03-01T14:59:47;7.60;99.90
790;DHT22;378;48.844;9.156;2023-03-01T15:02:18;7.60;99.90
790;DHT22;378;48.844;9.156;2023-03-01T15:04:47;7.70;99.90
790;DHT22;378;48.844;9.156;2023-03-01T15:07:15;7.70;99.90
790;DHT22;378;48.844;9.156;2023-03-01T15:09:44;7.80;99.90
790;DHT22;378;48.844;9.156;2023-03-01T15:12:37;7.80;99.90
790;DHT22;378;48.844;9.156;2023-03-01T15:15:31;7.70;99.90
790;DHT22;378;48.844;9.156;2023-03-01T15:17:59;7.60;99.90
790;DHT22;378;48.844;9.156;2023-03-01T15:20:29;7.60;99.90
790;DHT22;378;48.844;9.156;2023-03-01T15:23:01;7.60;99.90
790;DHT22;378;48.844;9.156;2023-03-01T15:25:31;7.60;99.90
790;DHT22;378;48.844;9.156;2023-03-01T15:28:00;7.50;99.90
790;DHT22;378;48.844;9.156;2023-03-01T15:30:30;7.60;99.90
790;DHT22;378;48.844;9.156;2023-03-01T15:33:20;7.50;99.90
790;DHT22;378;48.844;9.156;2023-03-01T15:35:48;7.50;99.90
790;DHT22;378;48.844;9.156;2023-03-01T15:38:34;7.40;99.90
790;DHT22;378;48.844;9.156;2023-03-01T15:41:20;7.30;99.90
790;DHT22;378;48.844;9.156;2023-03-01T15:43:49;7.20;99.90
790;DHT22;378;48.844;9.156;2023-03-01T15:46:20;7.20;99.90
790;DHT22;378;48.844;9.156;2023-03-01T15:48:52;7.10;99.90
790;DHT22;378;48.844;9.156;2023-03-01T15:51:26;7.20;99.90
790;DHT22;378;48.844;9.156;2023-03-01T15:53:54;7.20;99.90
790;DHT22;378;48.844;9.156;2023-03-01T15:56:23;7.20;99.90
790;DHT22;378;48.844;9.156;2023-03-01T15:58:49;7.10;99.90
790;DHT22;378;48.844;9.156;2023-03-01T16:01:17;7.00;99.90
790;DHT22;378;48.844;9.156;2023-03-01T16:03:44;6.90;99.90
790;DHT22;378;48.844;9.156;2023-03-01T16:06:12;6.80;99.90
790;DHT22;378;48.844;9.156;2023-03-01T16:08:39;6.80;99.90
790;DHT22;378;48.844;9.156;2023-03-01T16:11:13;6.60;99.90
790;DHT22;378;48.844;9.156;2023-03-01T16:13:42;6.60;99.90
790;DHT22;378;48.844;9.156;2023-03-01T16:16:10;6.50;99.90
790;DHT22;378;48.844;9.156;2023-03-01T16:18:41;6.40;99.90
790;DHT22;378;48.844;9.156;2023-03-01T16:21:12;6.40;99.90
790;DHT22;378;48.844;9.156;2023-03-01T16:23:41;6.40;99.90
790;DHT22;378;48.844;9.156;2023-03-01T16:26:08;6.40;99.90
790;DHT22;378;48.844;9.156;2023-03-01T16:28:35;6.30;99.90
790;DHT22;378;48.844;9.156;2023-03-01T16:31:03;6.30;99.90
790;DHT22;378;48.844;9.156;2023-03-01T16:33:31;6.20;99.90
790;DHT22;378;48.844;9.156;2023-03-01T16:35:58;6.10;99.90
790;DHT22;378;48.844;9.156;2023-03-01T16:38:25;6.10;99.90
790;DHT22;378;48.844;9.156;2023-03-01T16:40:52;6.00;99.90
790;DHT22;378;48.844;9.156;2023-03-01T16:43:20;6.00;99.90
790;DHT22;378;48.844;9.156;2023-03-01T16:45:47;5.90;99.90
790;DHT22;378;48.844;9.156;2023-03-01T16:48:15;5.90;99.90
790;DHT22;378;48.844;9.156;2023-03-01T16:50:42;5.80;99.90
790;DHT22;378;48.844;9.156;2023-03-01T16:53:09;5.70;99.90
790;DHT22;378;48.844;9.156;2023-03-01T16:55:36;5.70;99.90
790;DHT22;378;48.844;9.156;2023-03-01T16:58:03;5.50;99.90
790;DHT22;378;48.844;9.156;2023-03-01T17:00:31;5.50;99.90
790;DHT22;378;48.844;9.156;2023-03-01T17:02:58;5.40;99.90
790;DHT22;378;48.844;9.156;2023-03-01T17:05:26;5.40;99.90
790;DHT22;378;48.844;9.156;2023-03-01T17:07:53;5.30;99.90
790;DHT22;378;48.844;9.156;2023-03-01T17:10:21;5.20;99.90
790;DHT22;378;48.844;9.156;2023-03-01T17:12:48;5.10;99.90
790;DHT22;378;48.844;9.156;2023-03-01T17:15:16;5.00;99.90
790;DHT22;378;48.844;9.156;2023-03-01T17:17:43;4.90;99.90
790;DHT22;378;48.844;9.156;2023-03-01T17:20:11;4.70;99.90